| time (UTC) | temp C | wind direction | speed KPH | gust KPH | rain 1hr cm | rain 24hr cm | rain mn cm | humidity % | barometer mb |
| 20260506222404 | 10 | 301 | 0.0 | 8.0 | 0.03 | 1.57 | 1.52 | 94 | 1006.7 |
| 20260506221404 | 10 | 10 | 0.0 | 3.2 | 0.03 | 1.57 | 1.52 | 94 | 1006.7 |
| 20260506220404 | 9 | 10 | 0.0 | 8.0 | 0.03 | 1.57 | 1.52 | 93 | 1006.4 |
| 20260506215405 | 10 | 36 | 4.8 | 14.5 | 0.03 | 1.57 | 1.52 | 93 | 1006.0 |
| 20260506214404 | 10 | 5 | 4.8 | 9.7 | 0.03 | 1.57 | 1.52 | 93 | 1006.2 |
| 20260506213404 | 11 | 32 | 3.2 | 11.3 | 0.03 | 1.57 | 1.52 | 93 | 1006.1 |
| 20260506212404 | 12 | 33 | 4.8 | 14.5 | 0.10 | 1.55 | 1.50 | 94 | 1005.8 |
| 20260506211404 | 12 | 325 | 1.6 | 11.3 | 0.10 | 1.55 | 1.50 | 94 | 1005.4 |
| 20260506210404 | 12 | 331 | 1.6 | 4.8 | 0.13 | 1.55 | 1.50 | 94 | 1005.1 |
| 20260506205404 | 12 | 3 | 1.6 | 12.9 | 0.13 | 1.55 | 1.50 | 94 | 1005.0 |
| 20260506202404 | 16 | 9 | 3.2 | 11.3 | 0.03 | 1.45 | 1.40 | 95 | 1004.4 |
| 20260506201404 | 16 | 207 | 0.0 | 4.8 | 0.03 | 1.45 | 1.40 | 95 | 1004.0 |
| 20260506200404 | 16 | 207 | 1.6 | 3.2 | 0.00 | 1.42 | 1.37 | 95 | 1004.0 |
| 20260506194404 | 16 | 207 | 0.0 | 1.6 | 0.00 | 1.42 | 1.37 | 95 | 1004.2 |
| 20260506193404 | 16 | 207 | 0.0 | 3.2 | 0.03 | 1.42 | 1.37 | 95 | 1004.4 |
| 20260506191404 | 16 | 208 | 0.0 | 3.2 | 0.13 | 1.42 | 1.37 | 95 | 1004.5 |
| 20260506190404 | 16 | 208 | 1.6 | 4.8 | 0.18 | 1.42 | 1.37 | 95 | 1004.4 |
| 20260506184404 | 16 | 211 | 0.0 | 1.6 | 0.23 | 1.42 | 1.37 | 95 | 1004.7 |
| 20260506183405 | 16 | 211 | 0.0 | 3.2 | 0.20 | 1.40 | 1.35 | 95 | 1004.8 |
| 20260506181404 | 15 | 211 | 1.6 | 4.8 | 0.18 | 1.30 | 1.24 | 95 | 1004.9 |
| 20260506175404 | 15 | 209 | 0.0 | 8.0 | 0.23 | 1.22 | 1.17 | 95 | 1004.9 |
| 20260506174404 | 15 | 221 | 1.6 | 4.8 | 0.23 | 1.19 | 1.14 | 95 | 1004.8 |
| 20260506173404 | 15 | 221 | 3.2 | 8.0 | 0.28 | 1.19 | 1.14 | 95 | 1004.8 |
| 20260506172404 | 15 | 265 | 0.0 | 3.2 | 0.28 | 1.17 | 1.12 | 94 | 1005.0 |
| 20260506171404 | 14 | 265 | 1.6 | 4.8 | 0.25 | 1.12 | 1.07 | 94 | 1005.2 |
| 20260506170404 | 14 | 265 | 1.6 | 4.8 | 0.18 | 1.02 | 0.97 | 94 | 1005.2 |
| 20260506165404 | 14 | 265 | 0.0 | 3.2 | 0.18 | 0.99 | 0.94 | 94 | 1005.4 |
| 20260506164405 | 13 | 265 | 0.0 | 3.2 | 0.20 | 0.97 | 0.91 | 94 | 1005.5 |
| 20260506163404 | 13 | 265 | 0.0 | 1.6 | 0.18 | 0.91 | 0.86 | 94 | 1005.5 |
| 20260506162404 | 13 | 265 | 0.0 | 0.0 | 0.18 | 0.89 | 0.84 | 94 | 1005.6 |
| 20260506161404 | 13 | 265 | 0.0 | 1.6 | 0.20 | 0.86 | 0.81 | 94 | 1005.6 |
| 20260506160404 | 13 | 265 | 0.0 | 0.0 | 0.18 | 0.84 | 0.79 | 93 | 1005.8 |
| 20260506155404 | 13 | 265 | 0.0 | 0.0 | 0.20 | 0.81 | 0.76 | 93 | 1006.1 |
| 20260506154404 | 13 | 265 | 0.0 | 1.6 | 0.18 | 0.76 | 0.71 | 93 | 1006.2 |
| 20260506153404 | 13 | 265 | 0.0 | 1.6 | 0.20 | 0.74 | 0.69 | 93 | 1006.3 |
| 20260506152405 | 13 | 265 | 0.0 | 0.0 | 0.23 | 0.71 | 0.66 | 93 | 1006.4 |
| 20260506151404 | 12 | 265 | 0.0 | 0.0 | 0.25 | 0.66 | 0.61 | 93 | 1006.4 |
| 20260506150404 | 12 | 265 | 0.0 | 0.0 | 0.25 | 0.66 | 0.61 | 93 | 1006.6 |
| 20260506144404 | 12 | 265 | 0.0 | 0.0 | 0.23 | 0.58 | 0.53 | 92 | 1006.8 |
| 20260506143405 | 12 | 265 | 0.0 | 0.0 | 0.18 | 0.53 | 0.48 | 92 | 1007.1 |
| 20260506142404 | 12 | 265 | 0.0 | 3.2 | 0.15 | 0.48 | 0.43 | 92 | 1007.1 |
| 20260506141404 | 12 | 265 | 1.6 | 3.2 | 0.13 | 0.41 | 0.36 | 92 | 1007.0 |
| 20260506140404 | 12 | 265 | 0.0 | 0.0 | 0.18 | 0.41 | 0.36 | 92 | 1007.2 |
| 20260506135404 | 12 | 265 | 0.0 | 0.0 | 0.18 | 0.38 | 0.33 | 92 | 1007.2 |
| 20260506134404 | 12 | 265 | 0.0 | 0.0 | 0.20 | 0.36 | 0.30 | 92 | 1007.2 |
| 20260506133404 | 12 | 265 | 0.0 | 1.6 | 0.23 | 0.36 | 0.30 | 91 | 1007.0 |
| 20260506132405 | 12 | 265 | 0.0 | 0.0 | 0.23 | 0.33 | 0.28 | 91 | 1006.7 |
| 20260506131405 | 12 | 265 | 0.0 | 1.6 | 0.20 | 0.28 | 0.23 | 91 | 1006.8 |
| 20260506130404 | 12 | 265 | 0.0 | 0.0 | 0.15 | 0.23 | 0.18 | 91 | 1007.0 |
| 20260506125404 | 12 | 265 | 0.0 | 1.6 | 0.13 | 0.20 | 0.15 | 91 | 1007.0 |
| 20260506124404 | 12 | 265 | 0.0 | 1.6 | 0.10 | 0.15 | 0.10 | 91 | 1006.8 |
| 20260506123405 | 12 | 265 | 0.0 | 0.0 | 0.08 | 0.13 | 0.08 | 90 | 1007.1 |
| 20260506122404 | 12 | 265 | 0.0 | 0.0 | 0.05 | 0.10 | 0.05 | 90 | 1007.6 |
| 20260506121404 | 12 | 265 | 0.0 | 0.0 | 0.03 | 0.08 | 0.03 | 90 | 1007.9 |
| 20260506120405 | 12 | 265 | 0.0 | 3.2 | 0.03 | 0.08 | 0.03 | 90 | 1007.8 |
| 20260506115404 | 12 | 265 | 0.0 | 1.6 | 0.03 | 0.08 | 0.03 | 90 | 1007.8 |
| 20260506114404 | 12 | 265 | 0.0 | 3.2 | 0.00 | 0.05 | 0.00 | 90 | 1007.6 |
| 20260506113404 | 12 | 265 | 0.0 | 4.8 | 0.00 | 0.05 | 0.00 | 90 | 1007.5 |
| 20260506112404 | 12 | 265 | 0.0 | 1.6 | 0.00 | 0.05 | 0.00 | 89 | 1007.4 |
| 20260506111404 | 12 | 265 | 1.6 | 4.8 | 0.00 | 0.05 | 0.00 | 89 | 1006.9 |
| 20260506110404 | 12 | 265 | 1.6 | 3.2 | 0.00 | 0.05 | 0.00 | 89 | 1007.1 |
| 20260506103406 | 12 | 265 | 0.0 | 0.0 | 0.00 | 0.05 | 0.00 | 88 | 1007.3 |
| 20260506102405 | 12 | 265 | 0.0 | 1.6 | 0.00 | 0.05 | 0.00 | 88 | 1006.9 |
| 20260506101405 | 12 | 265 | 0.0 | 1.6 | 0.00 | 0.10 | 0.00 | 88 | 1007.0 |
| 20260506095405 | 12 | 265 | 1.6 | 3.2 | 0.00 | 0.15 | 0.00 | 88 | 1006.7 |
| 20260506094407 | 12 | 265 | 1.6 | 3.2 | 0.00 | 0.15 | 0.00 | 87 | 1006.6 |
| 20260506093405 | 12 | 265 | 0.0 | 4.8 | 0.00 | 0.15 | 0.00 | 87 | 1006.7 |
| 20260506092405 | 12 | 265 | 1.6 | 4.8 | 0.00 | 0.15 | 0.00 | 87 | 1006.6 |
| 20260506090405 | 12 | 265 | 0.0 | 3.2 | 0.00 | 0.15 | 0.00 | 86 | 1006.8 |
| 20260506085405 | 12 | 265 | 0.0 | 1.6 | 0.00 | 0.15 | 0.00 | 85 | 1006.8 |
| 20260506084405 | 12 | 265 | 0.0 | 0.0 | 0.00 | 0.15 | 0.00 | 85 | 1006.9 |
| 20260506083406 | 12 | 265 | 0.0 | 0.0 | 0.00 | 0.15 | 0.00 | 85 | 1007.0 |
| 20260506082405 | 12 | 265 | 0.0 | 0.0 | 0.00 | 0.15 | 0.00 | 84 | 1007.4 |
| 20260506081405 | 12 | 265 | 0.0 | 0.0 | 0.00 | 0.15 | 0.00 | 84 | 1007.3 |
| 20260506080404 | 12 | 265 | 0.0 | 3.2 | 0.00 | 0.15 | 0.00 | 84 | 1007.4 |
| 20260506073404 | 12 | 265 | 0.0 | 4.8 | 0.00 | 0.15 | 0.00 | 83 | 1007.7 |
| 20260506072405 | 13 | 265 | 0.0 | 1.6 | 0.00 | 0.15 | 0.00 | 83 | 1007.9 |
| 20260506071404 | 13 | 265 | 0.0 | 1.6 | 0.00 | 0.15 | 0.00 | 83 | 1007.8 |
| 20260506070405 | 13 | 265 | 0.0 | 1.6 | 0.00 | 0.15 | 0.00 | 83 | 1007.9 |
| 20260506061404 | 13 | 265 | 0.0 | 3.2 | 0.00 | 0.15 | 0.00 | 84 | 1008.4 |
| 20260506060405 | 13 | 265 | 0.0 | 1.6 | 0.00 | 0.15 | 0.00 | 85 | 1008.4 |
| 20260506051407 | 14 | 265 | 0.0 | 1.6 | 0.00 | 0.15 | 0.00 | 85 | 1008.5 |
| 20260506050406 | 15 | 265 | 0.0 | 0.0 | 0.00 | 0.15 | 0.00 | 85 | 1008.5 |
| 20260506044407 | 15 | 265 | 0.0 | 1.6 | 0.00 | 0.15 | 0.00 | 85 | 1008.6 |
| 20260506043405 | 15 | 265 | 0.0 | 0.0 | 0.00 | 0.15 | 0.00 | 84 | 1008.4 |
| 20260506041404 | 15 | 265 | 0.0 | 4.8 | 0.00 | 0.15 | 0.00 | 83 | 1008.7 |
| 20260506040405 | 15 | 265 | 0.0 | 3.2 | 0.00 | 0.15 | 0.00 | 83 | 1008.0 |
| 20260506035405 | 15 | 265 | 1.6 | 19.3 | 0.00 | 0.15 | 0.15 | 83 | 1007.7 |
| 20260506034405 | 15 | 263 | 3.2 | 12.9 | 0.00 | 0.15 | 0.15 | 85 | 1008.1 |
| 20260506033405 | 16 | 266 | 3.2 | 12.9 | 0.00 | 0.15 | 0.15 | 87 | 1008.2 |
| 20260506031406 | 16 | 260 | 0.0 | 4.8 | 0.00 | 0.15 | 0.15 | 87 | 1008.1 |
| 20260506030405 | 16 | 260 | 0.0 | 0.0 | 0.00 | 0.15 | 0.15 | 86 | 1008.2 |
| 20260506023405 | 17 | 261 | 0.0 | 1.6 | 0.05 | 0.15 | 0.15 | 83 | 1007.6 |
| 20260506021405 | 17 | 260 | 0.0 | 0.0 | 0.05 | 0.15 | 0.15 | 80 | 1007.6 |
| 20260506015405 | 18 | 260 | 0.0 | 3.2 | 0.03 | 0.13 | 0.13 | 78 | 1007.4 |
| 20260506014404 | 18 | 261 | 0.0 | 3.2 | 0.00 | 0.10 | 0.10 | 77 | 1007.2 |
| 20260506013407 | 18 | 260 | 0.0 | 0.0 | 0.00 | 0.10 | 0.10 | 77 | 1007.0 |
| 20260506012405 | 18 | 260 | 0.0 | 4.8 | 0.00 | 0.10 | 0.10 | 76 | 1006.8 |
| 20260506011405 | 18 | 261 | 1.6 | 1.6 | 0.00 | 0.10 | 0.10 | 73 | 1006.9 |
| 20260506005405 | 18 | 261 | 0.0 | 4.8 | 0.00 | 0.10 | 0.10 | 71 | 1006.7 |
| 20260506003405 | 18 | 261 | 0.0 | 4.8 | 0.00 | 0.10 | 0.10 | 71 | 1006.4 |
| 20260506001405 | 18 | 261 | 0.0 | 3.2 | 0.00 | 0.10 | 0.10 | 71 | 1005.9 |
| 20260506000405 | 19 | 260 | 3.2 | 4.8 | 0.00 | 0.10 | 0.10 | 71 | 1005.8 |
| 20260505235405 | 19 | 260 | 0.0 | 4.8 | 0.00 | 0.10 | 0.10 | 71 | 1005.7 |
| 20260505234405 | 19 | 261 | 1.6 | 4.8 | 0.00 | 0.10 | 0.10 | 70 | 1005.7 |
| 20260505233405 | 19 | 261 | 1.6 | 4.8 | 0.00 | 0.10 | 0.10 | 70 | 1005.6 |
| 20260505231405 | 19 | 261 | 3.2 | 4.8 | 0.00 | 0.10 | 0.10 | 70 | 1005.3 |
| 20260505230405 | 19 | 261 | 1.6 | 4.8 | 0.00 | 0.10 | 0.10 | 70 | 1005.3 |
| 20260505224405 | 19 | 265 | 8.0 | 24.1 | 0.00 | 0.10 | 0.10 | 69 | 1005.3 |
| 20260505223405 | 19 | 261 | 6.4 | 24.1 | 0.00 | 0.10 | 0.10 | 69 | 1005.2 |